createdAt,value
2022-10-26T00:01:07.000Z,88.56
2022-10-26T00:01:51.000Z,88.20
2022-10-26T00:02:53.000Z,87.79
2022-10-26T00:03:54.000Z,87.96
2022-10-26T00:04:52.000Z,87.76
2022-10-26T00:05:51.000Z,88.17
2022-10-26T00:06:51.000Z,87.82
2022-10-26T00:07:52.000Z,87.71
2022-10-26T00:08:52.000Z,88.06
2022-10-26T00:09:52.000Z,88.21
2022-10-26T00:10:55.000Z,88.09
2022-10-26T00:11:52.000Z,87.81
2022-10-26T00:12:52.000Z,87.96
2022-10-26T00:13:51.000Z,87.88
2022-10-26T00:14:52.000Z,87.81
2022-10-26T00:15:52.000Z,87.70
2022-10-26T00:16:51.000Z,87.69
2022-10-26T00:17:51.000Z,87.50
2022-10-26T00:18:52.000Z,87.73
2022-10-26T00:19:52.000Z,87.86
2022-10-26T00:20:51.000Z,87.56
2022-10-26T00:21:52.000Z,87.08
2022-10-26T00:22:51.000Z,87.42
2022-10-26T00:23:51.000Z,87.59
2022-10-26T00:24:51.000Z,87.63
2022-10-26T00:25:52.000Z,87.71
2022-10-26T00:26:51.000Z,87.93
2022-10-26T00:27:51.000Z,88.09
2022-10-26T00:28:53.000Z,88.00
2022-10-26T00:29:51.000Z,87.96
2022-10-26T00:30:52.000Z,87.96
2022-10-26T00:31:51.000Z,88.15
2022-10-26T00:32:51.000Z,88.21
2022-10-26T00:33:53.000Z,88.43
2022-10-26T00:34:52.000Z,88.57
2022-10-26T00:35:52.000Z,88.39
2022-10-26T00:36:51.000Z,88.54
2022-10-26T00:37:54.000Z,88.62
2022-10-26T00:38:54.000Z,88.20
2022-10-26T00:39:51.000Z,88.51
2022-10-26T00:40:51.000Z,88.15
2022-10-26T00:41:52.000Z,88.73
2022-10-26T00:42:51.000Z,88.50
2022-10-26T00:43:52.000Z,88.65
2022-10-26T00:44:58.000Z,88.57
2022-10-26T00:45:54.000Z,88.06
2022-10-26T00:46:51.000Z,88.29
2022-10-26T00:47:57.000Z,88.40
2022-10-26T00:48:56.000Z,88.15
2022-10-26T00:49:54.000Z,87.94
2022-10-26T00:50:54.000Z,87.90
2022-10-26T00:51:52.000Z,87.69
2022-10-26T00:52:53.000Z,87.97
2022-10-26T00:53:54.000Z,87.88
2022-10-26T00:54:52.000Z,87.93
2022-10-26T00:55:53.000Z,87.96
2022-10-26T00:56:53.000Z,87.64
2022-10-26T00:57:52.000Z,87.44
2022-10-26T00:58:53.000Z,87.50
2022-10-26T00:59:55.000Z,87.57
2022-10-26T01:00:52.000Z,87.41
2022-10-26T01:01:52.000Z,87.24
2022-10-26T01:02:55.000Z,86.93
2022-10-26T01:03:52.000Z,86.94
2022-10-26T01:04:52.000Z,87.15
2022-10-26T01:05:55.000Z,87.41
2022-10-26T01:06:52.000Z,87.29
2022-10-26T01:07:52.000Z,87.12
2022-10-26T01:08:52.000Z,86.85
2022-10-26T01:09:53.000Z,86.65
2022-10-26T01:10:52.000Z,86.83
2022-10-26T01:11:51.000Z,86.89
2022-10-26T01:12:54.000Z,86.90
2022-10-26T01:13:54.000Z,86.95
2022-10-26T01:14:52.000Z,86.94
2022-10-26T01:16:17.000Z,86.76
2022-10-26T01:17:02.000Z,86.68
2022-10-26T01:18:05.000Z,86.64
2022-10-26T01:19:02.000Z,86.58
2022-10-26T01:20:12.000Z,86.44
2022-10-26T01:21:12.000Z,86.31
2022-10-26T01:22:10.000Z,86.35
2022-10-26T01:23:12.000Z,86.29
2022-10-26T01:24:14.000Z,86.18
2022-10-26T01:25:12.000Z,86.15
2022-10-26T01:26:02.000Z,86.07
2022-10-26T01:27:14.000Z,86.06
2022-10-26T01:27:52.000Z,85.97
2022-10-26T01:29:02.000Z,86.10
2022-10-26T01:30:12.000Z,85.81
2022-10-26T01:30:56.000Z,85.85
2022-10-26T01:32:02.000Z,85.60
2022-10-26T01:33:01.000Z,85.63
2022-10-26T01:34:02.000Z,85.82
2022-10-26T01:35:15.000Z,85.85
2022-10-26T01:36:01.000Z,86.09
2022-10-26T01:36:56.000Z,86.06
2022-10-26T01:38:01.000Z,85.98
2022-10-26T01:39:01.000Z,86.04
2022-10-26T01:39:59.000Z,86.24
2022-10-26T01:41:01.000Z,86.20
2022-10-26T01:41:57.000Z,86.17
2022-10-26T01:42:54.000Z,86.34
2022-10-26T01:43:59.000Z,85.95
2022-10-26T01:44:59.000Z,86.15
2022-10-26T01:45:53.000Z,86.26
2022-10-26T01:46:53.000Z,86.10
2022-10-26T01:47:54.000Z,85.88
2022-10-26T01:48:56.000Z,85.96
2022-10-26T01:49:56.000Z,86.13
2022-10-26T01:50:54.000Z,86.11
2022-10-26T01:51:51.000Z,86.14
2022-10-26T01:52:52.000Z,86.11
2022-10-26T01:53:51.000Z,86.14
2022-10-26T01:54:59.000Z,85.88
2022-10-26T01:55:53.000Z,85.86
2022-10-26T01:56:55.000Z,85.93
2022-10-26T01:58:00.000Z,85.98
2022-10-26T01:59:14.000Z,85.87
2022-10-26T02:00:08.000Z,85.63
2022-10-26T02:01:00.000Z,85.59
2022-10-26T02:02:16.000Z,85.67
2022-10-26T02:03:02.000Z,85.43
2022-10-26T02:04:02.000Z,85.40
2022-10-26T02:05:14.000Z,85.66
2022-10-26T02:06:15.000Z,85.79
2022-10-26T02:07:01.000Z,85.61
2022-10-26T02:08:04.000Z,85.21
2022-10-26T02:09:05.000Z,85.46
2022-10-26T02:10:23.000Z,85.64
2022-10-26T02:11:06.000Z,85.59
2022-10-26T02:11:52.000Z,85.35
2022-10-26T02:13:01.000Z,85.16
2022-10-26T02:14:05.000Z,85.20
2022-10-26T02:15:02.000Z,84.99
2022-10-26T02:16:03.000Z,85.13
2022-10-26T02:17:03.000Z,85.34
2022-10-26T02:18:10.000Z,85.53
2022-10-26T02:19:04.000Z,85.34
2022-10-26T02:20:02.000Z,85.31
2022-10-26T02:20:59.000Z,85.41
2022-10-26T02:22:00.000Z,84.82
2022-10-26T02:22:54.000Z,84.92
2022-10-26T02:23:54.000Z,84.90
2022-10-26T02:24:53.000Z,84.98
2022-10-26T02:25:56.000Z,85.13
2022-10-26T02:26:54.000Z,85.15
2022-10-26T02:27:59.000Z,85.27
2022-10-26T02:28:56.000Z,85.35
2022-10-26T02:29:54.000Z,85.36
2022-10-26T02:30:54.000Z,85.35
2022-10-26T02:31:53.000Z,85.35
2022-10-26T02:32:54.000Z,85.49
2022-10-26T02:33:55.000Z,85.40
2022-10-26T02:34:55.000Z,85.34
2022-10-26T02:35:54.000Z,85.29
2022-10-26T02:36:55.000Z,85.46
2022-10-26T02:37:55.000Z,85.61
2022-10-26T02:38:52.000Z,85.55
2022-10-26T02:39:54.000Z,85.47
2022-10-26T02:40:53.000Z,85.75
2022-10-26T02:41:54.000Z,85.85
2022-10-26T02:42:56.000Z,86.15
2022-10-26T02:44:00.000Z,85.85
2022-10-26T02:44:59.000Z,86.20
2022-10-26T02:45:57.000Z,86.30
2022-10-26T02:46:53.000Z,86.37
2022-10-26T02:47:53.000Z,86.41
2022-10-26T02:48:53.000Z,86.68
2022-10-26T02:49:53.000Z,86.64
2022-10-26T02:51:09.000Z,86.75
2022-10-26T02:52:03.000Z,86.83
2022-10-26T02:53:12.000Z,87.07
2022-10-26T02:53:57.000Z,87.37
2022-10-26T02:55:04.000Z,87.34
2022-10-26T02:55:52.000Z,88.42
2022-10-26T02:57:28.000Z,88.28
2022-10-26T02:58:00.000Z,88.67
2022-10-26T02:58:59.000Z,88.83
2022-10-26T02:59:52.000Z,89.18
2022-10-26T03:00:52.000Z,89.02
2022-10-26T03:01:52.000Z,88.62
2022-10-26T03:02:55.000Z,88.69
2022-10-26T03:03:56.000Z,89.01
2022-10-26T03:04:54.000Z,89.29
2022-10-26T03:05:52.000Z,89.10
2022-10-26T03:06:53.000Z,89.10
2022-10-26T03:07:53.000Z,89.08
2022-10-26T03:08:52.000Z,88.88
2022-10-26T03:09:52.000Z,88.76
2022-10-26T03:10:52.000Z,88.88
2022-10-26T03:11:52.000Z,88.99
2022-10-26T03:12:52.000Z,88.96
2022-10-26T03:13:52.000Z,88.93
2022-10-26T03:14:52.000Z,88.66
2022-10-26T03:15:55.000Z,88.67
2022-10-26T03:16:52.000Z,88.95
2022-10-26T03:17:52.000Z,88.75
2022-10-26T03:18:52.000Z,88.70
2022-10-26T03:19:52.000Z,88.75
2022-10-26T03:20:52.000Z,88.61
2022-10-26T03:21:52.000Z,88.75
2022-10-26T03:22:52.000Z,88.90
2022-10-26T03:23:52.000Z,89.06
2022-10-26T03:24:52.000Z,89.07
2022-10-26T03:25:57.000Z,89.51
2022-10-26T03:26:52.000Z,89.42
2022-10-26T03:28:00.000Z,89.17
2022-10-26T03:28:52.000Z,89.08
2022-10-26T03:29:52.000Z,89.14
2022-10-26T03:30:52.000Z,89.28
2022-10-26T03:31:54.000Z,89.29
2022-10-26T03:32:52.000Z,89.54
2022-10-26T03:33:52.000Z,89.62
2022-10-26T03:34:51.000Z,89.41
2022-10-26T03:35:55.000Z,89.43
2022-10-26T03:36:52.000Z,89.32
2022-10-26T03:37:52.000Z,88.76
2022-10-26T03:38:51.000Z,88.86
2022-10-26T03:39:52.000Z,88.79
2022-10-26T03:40:52.000Z,88.83
2022-10-26T03:41:52.000Z,88.72
2022-10-26T03:42:51.000Z,88.72
2022-10-26T03:43:52.000Z,88.59
2022-10-26T03:44:51.000Z,88.79
2022-10-26T03:45:52.000Z,88.76
2022-10-26T03:46:52.000Z,88.77
2022-10-26T03:47:52.000Z,88.63
2022-10-26T03:48:52.000Z,88.52
2022-10-26T03:49:51.000Z,88.35
2022-10-26T03:50:56.000Z,88.54
2022-10-26T03:51:52.000Z,88.90
2022-10-26T03:52:51.000Z,88.63
2022-10-26T03:53:52.000Z,88.50
2022-10-26T03:54:51.000Z,88.55
2022-10-26T03:55:52.000Z,88.59
2022-10-26T03:56:51.000Z,88.56
2022-10-26T03:57:51.000Z,88.60
2022-10-26T03:58:52.000Z,88.51
2022-10-26T03:59:51.000Z,88.24
2022-10-26T04:00:52.000Z,88.17
2022-10-26T04:01:51.000Z,88.13
2022-10-26T04:02:54.000Z,87.90
2022-10-26T04:03:51.000Z,87.95
2022-10-26T04:04:52.000Z,88.61
2022-10-26T04:05:51.000Z,88.78
2022-10-26T04:06:52.000Z,88.66
2022-10-26T04:07:53.000Z,88.81
2022-10-26T04:08:56.000Z,88.70
2022-10-26T04:09:51.000Z,88.26
2022-10-26T04:10:51.000Z,88.53
2022-10-26T04:11:51.000Z,88.47
2022-10-26T04:12:52.000Z,88.70
2022-10-26T04:13:52.000Z,88.93
2022-10-26T04:14:52.000Z,88.82
2022-10-26T04:15:51.000Z,88.92
2022-10-26T04:16:51.000Z,89.18
2022-10-26T04:17:57.000Z,89.03
2022-10-26T04:18:51.000Z,88.84
2022-10-26T04:19:52.000Z,88.97
2022-10-26T04:20:51.000Z,88.80
2022-10-26T04:21:51.000Z,88.92
2022-10-26T04:22:59.000Z,88.81
2022-10-26T04:23:51.000Z,88.64
2022-10-26T04:24:52.000Z,88.87
2022-10-26T04:25:51.000Z,89.03
2022-10-26T04:26:51.000Z,88.99
2022-10-26T04:27:52.000Z,88.92
2022-10-26T04:28:51.000Z,88.82
2022-10-26T04:29:51.000Z,88.89
2022-10-26T04:30:51.000Z,89.04
2022-10-26T04:31:51.000Z,89.08
2022-10-26T04:32:52.000Z,89.23
2022-10-26T04:33:51.000Z,88.88
2022-10-26T04:34:53.000Z,89.12
2022-10-26T04:35:57.000Z,88.95
2022-10-26T04:36:51.000Z,89.15
2022-10-26T04:37:57.000Z,89.07
2022-10-26T04:38:51.000Z,89.08
2022-10-26T04:39:51.000Z,89.27
2022-10-26T04:40:51.000Z,89.40
2022-10-26T04:41:52.000Z,89.31
2022-10-26T04:42:52.000Z,89.17
2022-10-26T04:43:51.000Z,89.24
2022-10-26T04:44:51.000Z,89.34
2022-10-26T04:45:56.000Z,89.41
2022-10-26T04:46:51.000Z,89.40
2022-10-26T04:48:07.000Z,89.25
2022-10-26T04:48:51.000Z,89.42
2022-10-26T04:49:51.000Z,89.42
2022-10-26T04:50:51.000Z,89.17
2022-10-26T04:51:51.000Z,89.09
2022-10-26T04:52:52.000Z,89.21
2022-10-26T04:53:52.000Z,89.28
2022-10-26T04:54:51.000Z,89.33
2022-10-26T04:55:56.000Z,89.52
2022-10-26T04:56:51.000Z,89.60
2022-10-26T04:57:51.000Z,89.52
2022-10-26T04:58:52.000Z,89.63
2022-10-26T04:59:51.000Z,89.30
2022-10-26T05:00:52.000Z,89.62
2022-10-26T05:01:51.000Z,89.77
2022-10-26T05:03:00.000Z,89.82
2022-10-26T05:03:52.000Z,89.75
2022-10-26T05:04:51.000Z,89.83
2022-10-26T05:05:51.000Z,89.71
2022-10-26T05:06:52.000Z,89.65
2022-10-26T05:07:55.000Z,89.75
2022-10-26T05:08:51.000Z,89.62
2022-10-26T05:09:52.000Z,89.33
2022-10-26T05:10:53.000Z,89.29
2022-10-26T05:11:51.000Z,89.43
2022-10-26T05:12:53.000Z,89.50
2022-10-26T05:13:52.000Z,89.33
2022-10-26T05:14:51.000Z,89.37
2022-10-26T05:15:52.000Z,89.25
2022-10-26T05:16:54.000Z,89.39
2022-10-26T05:18:01.000Z,89.45
2022-10-26T05:18:51.000Z,89.32
2022-10-26T05:19:54.000Z,89.30
2022-10-26T05:20:52.000Z,89.23
2022-10-26T05:21:52.000Z,89.18
2022-10-26T05:22:51.000Z,89.21
2022-10-26T05:23:53.000Z,89.22
2022-10-26T05:24:51.000Z,89.43
2022-10-26T05:25:53.000Z,89.32
2022-10-26T05:26:51.000Z,89.16
2022-10-26T05:27:56.000Z,89.08
2022-10-26T05:28:52.000Z,89.18
2022-10-26T05:29:52.000Z,88.99
2022-10-26T05:30:51.000Z,89.17
2022-10-26T05:31:52.000Z,89.15
2022-10-26T05:32:53.000Z,89.12
2022-10-26T05:33:51.000Z,89.06
2022-10-26T05:34:51.000Z,89.19
2022-10-26T05:35:54.000Z,89.08
2022-10-26T05:36:52.000Z,89.20
2022-10-26T05:37:52.000Z,89.09
2022-10-26T05:38:51.000Z,89.25
2022-10-26T05:39:51.000Z,89.21
2022-10-26T05:40:53.000Z,89.10
2022-10-26T05:41:51.000Z,89.10
2022-10-26T05:42:58.000Z,89.09
2022-10-26T05:43:52.000Z,89.33
2022-10-26T05:44:51.000Z,89.20
2022-10-26T05:45:52.000Z,89.35
2022-10-26T05:46:51.000Z,89.74
2022-10-26T05:47:52.000Z,89.64
2022-10-26T05:48:52.000Z,89.75
2022-10-26T05:49:51.000Z,89.76
2022-10-26T05:50:52.000Z,89.78
2022-10-26T05:51:51.000Z,89.74
2022-10-26T05:52:52.000Z,89.68
2022-10-26T05:53:55.000Z,89.54
2022-10-26T05:54:52.000Z,89.62
2022-10-26T05:55:53.000Z,89.40
2022-10-26T05:56:52.000Z,89.57
2022-10-26T05:57:52.000Z,89.49
2022-10-26T05:58:52.000Z,89.54
2022-10-26T05:59:52.000Z,89.68
2022-10-26T06:01:24.000Z,89.77
2022-10-26T06:02:02.000Z,89.75
2022-10-26T06:03:02.000Z,89.80
2022-10-26T06:04:15.000Z,90.00
2022-10-26T06:04:55.000Z,89.84
2022-10-26T06:05:57.000Z,90.49
2022-10-26T06:06:52.000Z,90.35
2022-10-26T06:07:52.000Z,90.41
2022-10-26T06:08:51.000Z,90.48
2022-10-26T06:09:51.000Z,90.35
2022-10-26T06:10:54.000Z,90.36
2022-10-26T06:11:51.000Z,90.41
2022-10-26T06:12:51.000Z,90.52
2022-10-26T06:13:53.000Z,90.53
2022-10-26T06:14:51.000Z,90.64
2022-10-26T06:16:06.000Z,90.68
2022-10-26T06:17:05.000Z,90.68
2022-10-26T06:18:02.000Z,90.98
2022-10-26T06:19:17.000Z,90.92
2022-10-26T06:20:10.000Z,90.87
2022-10-26T06:21:06.000Z,90.83
2022-10-26T06:22:01.000Z,90.93
2022-10-26T06:23:14.000Z,91.00
2022-10-26T06:24:01.000Z,90.91
2022-10-26T06:25:01.000Z,90.75
2022-10-26T06:26:14.000Z,90.83
2022-10-26T06:27:01.000Z,90.86
2022-10-26T06:28:09.000Z,90.72
2022-10-26T06:29:11.000Z,90.85
2022-10-26T06:30:01.000Z,90.67
2022-10-26T06:30:51.000Z,90.72
2022-10-26T06:31:51.000Z,90.70
2022-10-26T06:32:53.000Z,91.00
2022-10-26T06:33:56.000Z,91.05
2022-10-26T06:35:09.000Z,90.98
2022-10-26T06:36:03.000Z,90.96
2022-10-26T06:36:52.000Z,90.89
2022-10-26T06:37:54.000Z,90.82
2022-10-26T06:39:10.000Z,91.06
2022-10-26T06:39:53.000Z,91.30
2022-10-26T06:40:54.000Z,91.33
2022-10-26T06:41:53.000Z,91.71
2022-10-26T06:42:51.000Z,91.72
2022-10-26T06:43:51.000Z,91.98
2022-10-26T06:44:51.000Z,91.78
2022-10-26T06:46:01.000Z,91.95
2022-10-26T06:47:03.000Z,91.94
2022-10-26T06:48:01.000Z,91.99
2022-10-26T06:49:11.000Z,92.04
2022-10-26T06:50:01.000Z,92.27
2022-10-26T06:50:52.000Z,92.42
2022-10-26T06:52:11.000Z,92.50
2022-10-26T06:53:20.000Z,93.14
2022-10-26T06:54:09.000Z,93.19
2022-10-26T06:54:53.000Z,93.80
2022-10-26T06:55:52.000Z,93.55
2022-10-26T06:56:51.000Z,93.61
2022-10-26T06:57:51.000Z,93.71
2022-10-26T06:58:54.000Z,93.85
2022-10-26T06:59:54.000Z,93.54
2022-10-26T07:00:53.000Z,93.87
2022-10-26T07:01:51.000Z,93.91
2022-10-26T07:02:51.000Z,94.08
2022-10-26T07:03:51.000Z,93.71
2022-10-26T07:04:51.000Z,93.91
2022-10-26T07:05:51.000Z,94.36
2022-10-26T07:06:51.000Z,94.07
2022-10-26T07:07:51.000Z,93.66
2022-10-26T07:08:51.000Z,94.16
2022-10-26T07:09:52.000Z,94.56
2022-10-26T07:10:51.000Z,94.14
2022-10-26T07:11:51.000Z,93.86
2022-10-26T07:12:51.000Z,94.58
2022-10-26T07:13:51.000Z,94.67
2022-10-26T07:14:51.000Z,94.04
2022-10-26T07:15:51.000Z,93.91
2022-10-26T07:16:53.000Z,94.42
2022-10-26T07:17:51.000Z,94.76
2022-10-26T07:18:52.000Z,94.60
2022-10-26T07:19:51.000Z,94.02
2022-10-26T07:20:51.000Z,93.96
2022-10-26T07:21:56.000Z,93.86
2022-10-26T07:22:55.000Z,93.65
2022-10-26T07:23:54.000Z,94.06
2022-10-26T07:24:52.000Z,94.89
2022-10-26T07:25:51.000Z,94.83
2022-10-26T07:26:52.000Z,94.76
2022-10-26T07:27:56.000Z,94.34
2022-10-26T07:28:51.000Z,94.44
2022-10-26T07:29:51.000Z,93.90
2022-10-26T07:30:51.000Z,93.85
2022-10-26T07:31:52.000Z,93.63
2022-10-26T07:33:00.000Z,93.42
2022-10-26T07:33:52.000Z,93.37
2022-10-26T07:34:51.000Z,93.38
2022-10-26T07:35:52.000Z,93.73
2022-10-26T07:36:51.000Z,93.62
2022-10-26T07:37:56.000Z,94.41
2022-10-26T07:38:52.000Z,94.25
2022-10-26T07:39:51.000Z,94.17
2022-10-26T07:40:52.000Z,93.83
2022-10-26T07:41:52.000Z,94.37
2022-10-26T07:42:55.000Z,94.33
2022-10-26T07:43:51.000Z,94.47
2022-10-26T07:44:51.000Z,94.37
2022-10-26T07:45:51.000Z,94.43
2022-10-26T07:46:51.000Z,94.60
2022-10-26T07:47:52.000Z,94.41
2022-10-26T07:48:52.000Z,94.91
2022-10-26T07:49:51.000Z,94.79
2022-10-26T07:50:51.000Z,95.50
2022-10-26T07:51:51.000Z,96.57
2022-10-26T07:52:51.000Z,95.95
2022-10-26T07:53:51.000Z,95.87
2022-10-26T07:54:51.000Z,96.47
2022-10-26T07:55:55.000Z,97.72
2022-10-26T07:56:51.000Z,97.15
2022-10-26T07:57:53.000Z,96.70
2022-10-26T07:58:53.000Z,97.28
2022-10-26T07:59:51.000Z,96.92
2022-10-26T08:00:52.000Z,97.25
2022-10-26T08:01:51.000Z,97.12
2022-10-26T08:02:52.000Z,96.60
2022-10-26T08:03:53.000Z,96.42
2022-10-26T08:04:51.000Z,97.48
2022-10-26T08:05:54.000Z,99.29
2022-10-26T08:06:52.000Z,98.24
2022-10-26T08:07:51.000Z,98.59
2022-10-26T08:08:51.000Z,98.71
2022-10-26T08:09:52.000Z,99.65
2022-10-26T08:10:52.000Z,99.06
2022-10-26T08:11:51.000Z,98.65
2022-10-26T08:12:52.000Z,98.74
2022-10-26T08:13:53.000Z,98.29
2022-10-26T08:14:51.000Z,99.03
2022-10-26T08:15:58.000Z,99.67
2022-10-26T08:16:51.000Z,99.17
2022-10-26T08:17:51.000Z,99.59
2022-10-26T08:18:51.000Z,99.50
2022-10-26T08:19:51.000Z,99.62
2022-10-26T08:20:52.000Z,99.25
2022-10-26T08:21:51.000Z,99.89
2022-10-26T08:22:55.000Z,99.67
2022-10-26T08:23:52.000Z,100.00
2022-10-26T08:24:51.000Z,100.00
2022-10-26T08:25:56.000Z,100.00
2022-10-26T08:26:51.000Z,100.00
2022-10-26T08:27:52.000Z,100.00
2022-10-26T08:28:52.000Z,100.00
2022-10-26T08:29:51.000Z,100.00
2022-10-26T08:30:52.000Z,100.00
2022-10-26T08:31:52.000Z,100.00
2022-10-26T08:33:01.000Z,100.00
2022-10-26T08:33:51.000Z,100.00
2022-10-26T08:34:51.000Z,100.00
2022-10-26T08:35:56.000Z,100.00
2022-10-26T08:36:51.000Z,100.00
2022-10-26T08:37:52.000Z,100.00
2022-10-26T08:38:52.000Z,100.00
2022-10-26T08:39:51.000Z,100.00
2022-10-26T08:40:53.000Z,100.00
2022-10-26T08:42:00.000Z,100.00
2022-10-26T08:42:58.000Z,100.00
2022-10-26T08:43:57.000Z,100.00
2022-10-26T08:44:56.000Z,100.00
2022-10-26T08:45:59.000Z,100.00
2022-10-26T08:46:58.000Z,100.00
2022-10-26T08:47:57.000Z,100.00
2022-10-26T08:49:01.000Z,100.00
2022-10-26T08:50:12.000Z,100.00
2022-10-26T08:51:00.000Z,100.00
2022-10-26T08:51:56.000Z,100.00
2022-10-26T08:53:10.000Z,100.00
2022-10-26T08:54:12.000Z,100.00
2022-10-26T08:54:55.000Z,100.00
2022-10-26T08:56:00.000Z,100.00
2022-10-26T08:56:56.000Z,100.00
2022-10-26T08:57:52.000Z,100.00
2022-10-26T08:59:05.000Z,100.00
2022-10-26T08:59:59.000Z,100.00
2022-10-26T09:00:52.000Z,100.00
2022-10-26T09:01:52.000Z,100.00
2022-10-26T09:02:52.000Z,100.00
2022-10-26T09:03:51.000Z,100.00
2022-10-26T09:04:55.000Z,100.00
2022-10-26T09:06:06.000Z,100.00
2022-10-26T09:07:10.000Z,100.00
2022-10-26T09:08:02.000Z,100.00
2022-10-26T09:09:01.000Z,100.00
2022-10-26T09:10:15.000Z,100.00
2022-10-26T09:11:22.000Z,100.00
2022-10-26T09:12:20.000Z,100.00
2022-10-26T09:13:01.000Z,100.00
2022-10-26T09:14:00.000Z,100.00
2022-10-26T09:15:14.000Z,100.00
2022-10-26T09:16:11.000Z,100.00
2022-10-26T09:17:14.000Z,100.00
2022-10-26T09:18:01.000Z,100.00
2022-10-26T09:19:21.000Z,100.00
2022-10-26T09:20:21.000Z,99.42
2022-10-26T09:21:18.000Z,99.08
2022-10-26T09:22:06.000Z,98.80
2022-10-26T09:23:11.000Z,99.05
2022-10-26T09:24:10.000Z,99.04
2022-10-26T09:24:54.000Z,98.26
2022-10-26T09:25:57.000Z,98.08
2022-10-26T09:26:53.000Z,97.60
2022-10-26T09:27:58.000Z,97.60
2022-10-26T09:28:52.000Z,96.95
2022-10-26T09:29:54.000Z,96.44
2022-10-26T09:30:51.000Z,96.57
2022-10-26T09:31:55.000Z,96.82
2022-10-26T09:33:02.000Z,97.26
2022-10-26T09:33:53.000Z,96.25
2022-10-26T09:34:58.000Z,95.95
2022-10-26T09:35:58.000Z,95.70
2022-10-26T09:36:53.000Z,95.58
2022-10-26T09:37:56.000Z,94.54
2022-10-26T09:39:00.000Z,93.55
2022-10-26T09:40:05.000Z,93.89
2022-10-26T09:41:02.000Z,93.94
2022-10-26T09:41:58.000Z,93.37
2022-10-26T09:43:00.000Z,93.48
2022-10-26T09:44:09.000Z,93.98
2022-10-26T09:45:00.000Z,94.02
2022-10-26T09:45:52.000Z,93.88
2022-10-26T09:47:02.000Z,93.85
2022-10-26T09:47:54.000Z,94.53
2022-10-26T09:48:56.000Z,94.76
2022-10-26T09:50:02.000Z,95.11
2022-10-26T09:50:51.000Z,94.72
2022-10-26T09:51:51.000Z,93.47
2022-10-26T09:52:51.000Z,94.11
2022-10-26T09:53:54.000Z,93.34
2022-10-26T09:54:51.000Z,93.46
2022-10-26T09:56:01.000Z,93.29
2022-10-26T09:56:58.000Z,93.27
2022-10-26T09:57:59.000Z,92.11
2022-10-26T09:58:55.000Z,91.84
2022-10-26T09:59:54.000Z,92.13
2022-10-26T10:00:52.000Z,92.84
2022-10-26T10:01:51.000Z,93.85
2022-10-26T10:02:56.000Z,93.63
2022-10-26T10:04:01.000Z,92.61
2022-10-26T10:04:51.000Z,91.16
2022-10-26T10:05:52.000Z,91.15
2022-10-26T10:07:11.000Z,90.84
2022-10-26T10:08:13.000Z,90.95
2022-10-26T10:09:01.000Z,92.25
2022-10-26T10:10:01.000Z,92.33
2022-10-26T10:10:53.000Z,91.06
2022-10-26T10:12:00.000Z,90.99
2022-10-26T10:12:51.000Z,89.96
2022-10-26T10:13:51.000Z,91.27
2022-10-26T10:14:57.000Z,90.93
2022-10-26T10:15:55.000Z,91.09
2022-10-26T10:16:57.000Z,89.70
2022-10-26T10:17:53.000Z,87.84
2022-10-26T10:18:54.000Z,88.04
2022-10-26T10:19:52.000Z,89.05
2022-10-26T10:20:56.000Z,87.88
2022-10-26T10:21:58.000Z,88.00
2022-10-26T10:23:01.000Z,88.09
2022-10-26T10:23:53.000Z,87.38
2022-10-26T10:24:59.000Z,87.26
2022-10-26T10:25:58.000Z,86.16
2022-10-26T10:27:00.000Z,85.95
2022-10-26T10:27:52.000Z,86.52
2022-10-26T10:28:58.000Z,85.27
2022-10-26T10:29:53.000Z,85.48
2022-10-26T10:30:58.000Z,85.89
2022-10-26T10:31:56.000Z,85.54
2022-10-26T10:33:01.000Z,83.75
2022-10-26T10:33:51.000Z,84.83
2022-10-26T10:34:56.000Z,85.34
2022-10-26T10:35:51.000Z,85.57
2022-10-26T10:36:52.000Z,85.59
2022-10-26T10:37:51.000Z,85.94
2022-10-26T10:38:52.000Z,84.45
2022-10-26T10:39:57.000Z,84.75
2022-10-26T10:40:57.000Z,84.13
2022-10-26T10:41:52.000Z,83.95
2022-10-26T10:43:01.000Z,84.81
2022-10-26T10:44:18.000Z,81.45
2022-10-26T10:44:54.000Z,82.00
2022-10-26T10:45:55.000Z,82.92
2022-10-26T10:47:03.000Z,83.06
2022-10-26T10:48:01.000Z,82.42
2022-10-26T10:48:59.000Z,83.12
2022-10-26T10:49:56.000Z,82.50
2022-10-26T10:51:01.000Z,82.84
2022-10-26T10:51:54.000Z,82.50
2022-10-26T10:52:52.000Z,82.79
2022-10-26T10:53:53.000Z,83.20
2022-10-26T10:55:10.000Z,82.38
2022-10-26T10:56:02.000Z,82.26
2022-10-26T10:57:07.000Z,80.91
2022-10-26T10:58:14.000Z,81.42
2022-10-26T10:59:15.000Z,81.88
2022-10-26T11:00:02.000Z,81.11
2022-10-26T11:00:54.000Z,81.64
2022-10-26T11:02:02.000Z,80.82
2022-10-26T11:03:02.000Z,81.01
2022-10-26T11:04:02.000Z,80.35
2022-10-26T11:05:11.000Z,81.58
2022-10-26T11:06:02.000Z,81.55
2022-10-26T11:06:55.000Z,82.28
2022-10-26T11:08:06.000Z,81.14
2022-10-26T11:09:02.000Z,81.13
2022-10-26T11:09:53.000Z,82.07
2022-10-26T11:10:59.000Z,81.69
2022-10-26T11:11:56.000Z,81.55
2022-10-26T11:12:57.000Z,81.95
2022-10-26T11:14:00.000Z,82.19
2022-10-26T11:15:01.000Z,81.89
2022-10-26T11:15:57.000Z,82.21
2022-10-26T11:17:00.000Z,79.70
2022-10-26T11:18:01.000Z,79.56
2022-10-26T11:19:06.000Z,80.61
2022-10-26T11:19:55.000Z,79.55
2022-10-26T11:20:58.000Z,78.78
2022-10-26T11:21:52.000Z,79.13
2022-10-26T11:23:08.000Z,79.90
2022-10-26T11:24:01.000Z,80.24
2022-10-26T11:25:03.000Z,80.28
2022-10-26T11:26:02.000Z,80.34
2022-10-26T11:27:02.000Z,80.21
2022-10-26T11:28:00.000Z,79.75
2022-10-26T11:29:00.000Z,79.59
2022-10-26T11:30:01.000Z,79.97
2022-10-26T11:30:58.000Z,80.09
2022-10-26T11:32:01.000Z,80.68
2022-10-26T11:33:01.000Z,79.57
2022-10-26T11:34:14.000Z,80.46
2022-10-26T11:35:13.000Z,80.48
2022-10-26T11:36:03.000Z,80.22
2022-10-26T11:37:00.000Z,80.35
2022-10-26T11:38:08.000Z,79.86
2022-10-26T11:39:03.000Z,80.15
2022-10-26T11:40:00.000Z,80.83
2022-10-26T11:41:04.000Z,81.01
2022-10-26T11:42:02.000Z,81.10
2022-10-26T11:43:05.000Z,81.25
2022-10-26T11:44:02.000Z,81.67
2022-10-26T11:45:01.000Z,82.00
2022-10-26T11:46:02.000Z,81.37
2022-10-26T11:46:56.000Z,81.40
2022-10-26T11:48:00.000Z,81.91
2022-10-26T11:49:09.000Z,82.01
2022-10-26T11:50:03.000Z,82.08
2022-10-26T11:50:56.000Z,81.83
2022-10-26T11:52:03.000Z,82.39
2022-10-26T11:53:00.000Z,81.29
2022-10-26T11:53:52.000Z,81.73
2022-10-26T11:54:55.000Z,82.33
2022-10-26T11:55:53.000Z,81.84
2022-10-26T11:56:54.000Z,80.56
2022-10-26T11:57:53.000Z,80.63
2022-10-26T11:58:52.000Z,81.33
2022-10-26T11:59:55.000Z,80.75
2022-10-26T12:00:57.000Z,80.65
2022-10-26T12:02:09.000Z,80.90
2022-10-26T12:02:59.000Z,81.40
2022-10-26T12:03:53.000Z,81.97
2022-10-26T12:04:58.000Z,81.84
2022-10-26T12:05:52.000Z,80.50
2022-10-26T12:06:55.000Z,81.17
2022-10-26T12:08:00.000Z,81.31
2022-10-26T12:09:04.000Z,81.42
2022-10-26T12:09:54.000Z,80.92
2022-10-26T12:11:04.000Z,81.37
2022-10-26T12:12:00.000Z,80.25
2022-10-26T12:13:01.000Z,80.38
2022-10-26T12:14:00.000Z,80.24
2022-10-26T12:15:01.000Z,80.59
2022-10-26T12:16:00.000Z,80.87
2022-10-26T12:17:11.000Z,80.18
2022-10-26T12:18:04.000Z,80.85
2022-10-26T12:18:59.000Z,80.45
2022-10-26T12:20:11.000Z,80.44
2022-10-26T12:20:58.000Z,80.47
2022-10-26T12:21:52.000Z,79.86
2022-10-26T12:22:51.000Z,79.69
2022-10-26T12:24:00.000Z,80.05
2022-10-26T12:25:01.000Z,79.70
2022-10-26T12:26:11.000Z,79.62
2022-10-26T12:26:57.000Z,80.15
2022-10-26T12:27:54.000Z,79.87
2022-10-26T12:29:14.000Z,80.09
2022-10-26T12:30:25.000Z,80.13
2022-10-26T12:30:51.000Z,79.95
2022-10-26T12:31:51.000Z,79.85
2022-10-26T12:32:53.000Z,79.75
2022-10-26T12:33:51.000Z,79.51
2022-10-26T12:34:59.000Z,79.52
2022-10-26T12:35:51.000Z,79.10
2022-10-26T12:37:20.000Z,79.07
2022-10-26T12:37:51.000Z,78.92
2022-10-26T12:38:56.000Z,78.32
2022-10-26T12:39:51.000Z,79.05
2022-10-26T12:41:16.000Z,78.94
2022-10-26T12:42:01.000Z,79.09
2022-10-26T12:42:51.000Z,78.84
2022-10-26T12:43:55.000Z,78.57
2022-10-26T12:45:13.000Z,79.29
2022-10-26T12:46:26.000Z,78.33
2022-10-26T12:46:51.000Z,79.17
2022-10-26T12:48:02.000Z,78.82
2022-10-26T12:48:58.000Z,78.76
2022-10-26T12:50:14.000Z,78.94
2022-10-26T12:50:52.000Z,78.37